sensor_id;sensor_type;location;lat;lon;timestamp;P1;durP1;ratioP1;P2;durP2;ratioP2
49340;SDS011;35209;51.050;13.678;2022-12-18T00:03:18;46.92;;;23.75;;
49340;SDS011;35209;51.050;13.678;2022-12-18T00:08:20;44.63;;;23.83;;
49340;SDS011;35209;51.050;13.678;2022-12-18T00:13:22;45.95;;;22.63;;
49340;SDS011;35209;51.050;13.678;2022-12-18T00:18:23;35.38;;;22.10;;
49340;SDS011;35209;51.050;13.678;2022-12-18T00:23:25;51.13;;;23.45;;
49340;SDS011;35209;51.050;13.678;2022-12-18T00:28:27;48.25;;;22.42;;
49340;SDS011;35209;51.050;13.678;2022-12-18T00:33:29;46.67;;;22.55;;
49340;SDS011;35209;51.050;13.678;2022-12-18T00:38:32;45.38;;;22.95;;
49340;SDS011;35209;51.050;13.678;2022-12-18T00:43:35;43.47;;;22.02;;
49340;SDS011;35209;51.050;13.678;2022-12-18T00:48:38;50.03;;;25.10;;
49340;SDS011;35209;51.050;13.678;2022-12-18T00:53:40;53.03;;;26.33;;
49340;SDS011;35209;51.050;13.678;2022-12-18T00:58:42;44.40;;;24.13;;
49340;SDS011;35209;51.050;13.678;2022-12-18T01:03:44;35.45;;;22.42;;
49340;SDS011;35209;51.050;13.678;2022-12-18T01:08:50;52.25;;;24.60;;
49340;SDS011;35209;51.050;13.678;2022-12-18T01:13:52;49.13;;;22.38;;
49340;SDS011;35209;51.050;13.678;2022-12-18T01:18:56;40.17;;;21.33;;
49340;SDS011;35209;51.050;13.678;2022-12-18T01:23:57;42.85;;;21.20;;
49340;SDS011;35209;51.050;13.678;2022-12-18T01:28:59;31.25;;;20.33;;
49340;SDS011;35209;51.050;13.678;2022-12-18T01:34:03;38.95;;;21.00;;
49340;SDS011;35209;51.050;13.678;2022-12-18T01:39:12;40.67;;;21.98;;
49340;SDS011;35209;51.050;13.678;2022-12-18T01:49:48;31.42;;;19.55;;
49340;SDS011;35209;51.050;13.678;2022-12-18T01:54:50;48.58;;;22.60;;
49340;SDS011;35209;51.050;13.678;2022-12-18T01:59:55;34.58;;;21.52;;
49340;SDS011;35209;51.050;13.678;2022-12-18T02:05:23;31.70;;;19.10;;
49340;SDS011;35209;51.050;13.678;2022-12-18T02:10:42;37.90;;;20.48;;
49340;SDS011;35209;51.050;13.678;2022-12-18T02:26:36;31.63;;;17.97;;
49340;SDS011;35209;51.050;13.678;2022-12-18T02:31:43;35.28;;;19.35;;
49340;SDS011;35209;51.050;13.678;2022-12-18T02:36:50;33.42;;;19.17;;
49340;SDS011;35209;51.050;13.678;2022-12-18T02:41:54;29.85;;;17.42;;
49340;SDS011;35209;51.050;13.678;2022-12-18T02:46:58;28.73;;;18.58;;
49340;SDS011;35209;51.050;13.678;2022-12-18T03:03:04;25.02;;;16.58;;
49340;SDS011;35209;51.050;13.678;2022-12-18T03:13:24;20.80;;;15.45;;
49340;SDS011;35209;51.050;13.678;2022-12-18T03:18:37;21.85;;;15.65;;
49340;SDS011;35209;51.050;13.678;2022-12-18T03:23:47;26.83;;;15.70;;
49340;SDS011;35209;51.050;13.678;2022-12-18T03:28:59;21.05;;;15.63;;
49340;SDS011;35209;51.050;13.678;2022-12-18T03:34:12;20.08;;;14.07;;
49340;SDS011;35209;51.050;13.678;2022-12-18T03:39:22;16.45;;;13.77;;
49340;SDS011;35209;51.050;13.678;2022-12-18T03:44:32;15.45;;;13.18;;
49340;SDS011;35209;51.050;13.678;2022-12-18T03:49:49;17.40;;;12.43;;
49340;SDS011;35209;51.050;13.678;2022-12-18T03:55:03;20.88;;;12.57;;
49340;SDS011;35209;51.050;13.678;2022-12-18T04:00:12;17.83;;;12.57;;
49340;SDS011;35209;51.050;13.678;2022-12-18T04:05:31;18.13;;;12.23;;
49340;SDS011;35209;51.050;13.678;2022-12-18T04:10:36;12.60;;;10.32;;
49340;SDS011;35209;51.050;13.678;2022-12-18T04:15:38;14.05;;;11.55;;
49340;SDS011;35209;51.050;13.678;2022-12-18T04:20:44;16.90;;;10.98;;
49340;SDS011;35209;51.050;13.678;2022-12-18T04:25:47;12.52;;;10.45;;
49340;SDS011;35209;51.050;13.678;2022-12-18T04:30:56;10.82;;;9.73;;
49340;SDS011;35209;51.050;13.678;2022-12-18T04:35:58;11.43;;;9.50;;
49340;SDS011;35209;51.050;13.678;2022-12-18T04:41:00;12.10;;;9.25;;
49340;SDS011;35209;51.050;13.678;2022-12-18T04:46:04;13.80;;;8.50;;
49340;SDS011;35209;51.050;13.678;2022-12-18T04:51:06;11.27;;;8.52;;
49340;SDS011;35209;51.050;13.678;2022-12-18T04:56:09;10.07;;;8.10;;
49340;SDS011;35209;51.050;13.678;2022-12-18T05:01:16;14.30;;;8.70;;
49340;SDS011;35209;51.050;13.678;2022-12-18T05:06:19;9.18;;;7.68;;
49340;SDS011;35209;51.050;13.678;2022-12-18T05:11:21;10.43;;;8.55;;
49340;SDS011;35209;51.050;13.678;2022-12-18T05:16:22;12.88;;;8.52;;
49340;SDS011;35209;51.050;13.678;2022-12-18T05:21:24;10.38;;;7.50;;
49340;SDS011;35209;51.050;13.678;2022-12-18T05:26:26;16.15;;;7.85;;
49340;SDS011;35209;51.050;13.678;2022-12-18T05:31:28;10.40;;;7.80;;
49340;SDS011;35209;51.050;13.678;2022-12-18T05:36:36;14.35;;;7.68;;
49340;SDS011;35209;51.050;13.678;2022-12-18T05:41:37;11.07;;;7.60;;
49340;SDS011;35209;51.050;13.678;2022-12-18T05:46:39;9.90;;;7.38;;
49340;SDS011;35209;51.050;13.678;2022-12-18T05:51:41;10.95;;;8.65;;
49340;SDS011;35209;51.050;13.678;2022-12-18T05:56:43;10.02;;;8.77;;
49340;SDS011;35209;51.050;13.678;2022-12-18T06:01:49;10.10;;;8.00;;
49340;SDS011;35209;51.050;13.678;2022-12-18T06:06:51;11.75;;;8.18;;
49340;SDS011;35209;51.050;13.678;2022-12-18T06:11:53;11.95;;;7.45;;
49340;SDS011;35209;51.050;13.678;2022-12-18T06:16:55;10.57;;;7.32;;
49340;SDS011;35209;51.050;13.678;2022-12-18T06:21:56;9.88;;;7.07;;
49340;SDS011;35209;51.050;13.678;2022-12-18T06:27:00;9.70;;;8.20;;
49340;SDS011;35209;51.050;13.678;2022-12-18T06:32:01;11.68;;;8.38;;
49340;SDS011;35209;51.050;13.678;2022-12-18T06:37:03;8.93;;;6.95;;
49340;SDS011;35209;51.050;13.678;2022-12-18T06:42:05;11.07;;;7.82;;
49340;SDS011;35209;51.050;13.678;2022-12-18T06:47:07;9.80;;;8.20;;
49340;SDS011;35209;51.050;13.678;2022-12-18T06:52:09;10.57;;;8.18;;
49340;SDS011;35209;51.050;13.678;2022-12-18T06:57:11;13.15;;;8.18;;
49340;SDS011;35209;51.050;13.678;2022-12-18T07:02:12;13.20;;;8.63;;
49340;SDS011;35209;51.050;13.678;2022-12-18T07:07:15;19.10;;;9.27;;
49340;SDS011;35209;51.050;13.678;2022-12-18T07:12:17;12.50;;;8.88;;
49340;SDS011;35209;51.050;13.678;2022-12-18T07:17:19;15.25;;;9.85;;
49340;SDS011;35209;51.050;13.678;2022-12-18T07:22:21;13.20;;;9.68;;
49340;SDS011;35209;51.050;13.678;2022-12-18T07:27:23;19.90;;;10.18;;
49340;SDS011;35209;51.050;13.678;2022-12-18T07:32:24;17.25;;;11.27;;
49340;SDS011;35209;51.050;13.678;2022-12-18T07:37:26;15.10;;;10.02;;
49340;SDS011;35209;51.050;13.678;2022-12-18T07:42:28;12.73;;;10.77;;
49340;SDS011;35209;51.050;13.678;2022-12-18T07:47:35;13.95;;;10.27;;
49340;SDS011;35209;51.050;13.678;2022-12-18T07:52:37;13.57;;;9.65;;
49340;SDS011;35209;51.050;13.678;2022-12-18T07:57:39;15.52;;;10.93;;
49340;SDS011;35209;51.050;13.678;2022-12-18T08:02:51;19.02;;;12.10;;
49340;SDS011;35209;51.050;13.678;2022-12-18T08:07:54;15.60;;;11.90;;
49340;SDS011;35209;51.050;13.678;2022-12-18T08:12:56;20.38;;;14.00;;
49340;SDS011;35209;51.050;13.678;2022-12-18T08:18:05;18.52;;;13.55;;
49340;SDS011;35209;51.050;13.678;2022-12-18T08:23:14;21.60;;;14.70;;
49340;SDS011;35209;51.050;13.678;2022-12-18T08:28:17;26.42;;;15.40;;
49340;SDS011;35209;51.050;13.678;2022-12-18T08:33:18;25.27;;;16.80;;
49340;SDS011;35209;51.050;13.678;2022-12-18T08:38:20;24.55;;;17.35;;
49340;SDS011;35209;51.050;13.678;2022-12-18T08:43:22;26.67;;;18.05;;
49340;SDS011;35209;51.050;13.678;2022-12-18T08:48:43;22.30;;;16.55;;
49340;SDS011;35209;51.050;13.678;2022-12-18T08:53:45;35.47;;;19.80;;
49340;SDS011;35209;51.050;13.678;2022-12-18T08:58:47;29.80;;;18.60;;
49340;SDS011;35209;51.050;13.678;2022-12-18T09:03:52;33.70;;;19.00;;
49340;SDS011;35209;51.050;13.678;2022-12-18T09:08:53;31.58;;;18.75;;
49340;SDS011;35209;51.050;13.678;2022-12-18T09:13:55;42.03;;;20.77;;
49340;SDS011;35209;51.050;13.678;2022-12-18T09:18:58;33.78;;;19.75;;
49340;SDS011;35209;51.050;13.678;2022-12-18T09:24:01;26.45;;;19.13;;
49340;SDS011;35209;51.050;13.678;2022-12-18T09:29:03;32.47;;;20.67;;
49340;SDS011;35209;51.050;13.678;2022-12-18T09:34:05;42.63;;;23.08;;
49340;SDS011;35209;51.050;13.678;2022-12-18T09:39:07;38.72;;;22.90;;
49340;SDS011;35209;51.050;13.678;2022-12-18T09:44:29;42.47;;;23.92;;
49340;SDS011;35209;51.050;13.678;2022-12-18T09:49:47;38.03;;;22.08;;
49340;SDS011;35209;51.050;13.678;2022-12-18T09:54:55;48.65;;;24.17;;
49340;SDS011;35209;51.050;13.678;2022-12-18T10:05:16;47.03;;;23.50;;
49340;SDS011;35209;51.050;13.678;2022-12-18T10:21:39;57.50;;;26.30;;
49340;SDS011;35209;51.050;13.678;2022-12-18T10:26:53;57.08;;;25.95;;
49340;SDS011;35209;51.050;13.678;2022-12-18T10:32:00;55.45;;;24.48;;
49340;SDS011;35209;51.050;13.678;2022-12-18T10:37:03;56.38;;;27.00;;
49340;SDS011;35209;51.050;13.678;2022-12-18T10:42:19;61.90;;;27.83;;
49340;SDS011;35209;51.050;13.678;2022-12-18T10:47:20;55.65;;;26.48;;
49340;SDS011;35209;51.050;13.678;2022-12-18T10:52:23;52.53;;;26.92;;
49340;SDS011;35209;51.050;13.678;2022-12-18T10:57:31;59.42;;;29.00;;
49340;SDS011;35209;51.050;13.678;2022-12-18T11:02:36;53.15;;;27.08;;
49340;SDS011;35209;51.050;13.678;2022-12-18T11:07:48;43.80;;;23.00;;
49340;SDS011;35209;51.050;13.678;2022-12-18T11:12:51;41.60;;;21.83;;
49340;SDS011;35209;51.050;13.678;2022-12-18T11:17:53;32.90;;;21.33;;
49340;SDS011;35209;51.050;13.678;2022-12-18T11:22:59;43.08;;;23.88;;
49340;SDS011;35209;51.050;13.678;2022-12-18T11:33:37;45.22;;;24.15;;
49340;SDS011;35209;51.050;13.678;2022-12-18T11:39:07;47.23;;;25.03;;
49340;SDS011;35209;51.050;13.678;2022-12-18T11:44:22;46.47;;;23.75;;
49340;SDS011;35209;51.050;13.678;2022-12-18T11:49:34;46.22;;;24.80;;
49340;SDS011;35209;51.050;13.678;2022-12-18T11:54:37;39.67;;;23.27;;
49340;SDS011;35209;51.050;13.678;2022-12-18T11:59:51;42.30;;;23.27;;
49340;SDS011;35209;51.050;13.678;2022-12-18T12:05:18;45.08;;;24.17;;
49340;SDS011;35209;51.050;13.678;2022-12-18T12:42:41;47.30;;;23.45;;
49340;SDS011;35209;51.050;13.678;2022-12-18T12:48:15;51.33;;;24.00;;
49340;SDS011;35209;51.050;13.678;2022-12-18T12:53:24;46.92;;;23.73;;
49340;SDS011;35209;51.050;13.678;2022-12-18T12:58:36;53.50;;;23.02;;
49340;SDS011;35209;51.050;13.678;2022-12-18T13:09:33;46.58;;;23.38;;
49340;SDS011;35209;51.050;13.678;2022-12-18T13:14:39;51.65;;;23.30;;
49340;SDS011;35209;51.050;13.678;2022-12-18T13:19:42;46.53;;;22.60;;
49340;SDS011;35209;51.050;13.678;2022-12-18T13:24:44;44.83;;;22.35;;
49340;SDS011;35209;51.050;13.678;2022-12-18T13:29:46;56.90;;;24.35;;
49340;SDS011;35209;51.050;13.678;2022-12-18T13:34:48;48.90;;;23.00;;
49340;SDS011;35209;51.050;13.678;2022-12-18T13:46:05;50.75;;;22.50;;
49340;SDS011;35209;51.050;13.678;2022-12-18T13:51:26;50.13;;;23.00;;
49340;SDS011;35209;51.050;13.678;2022-12-18T13:56:31;47.78;;;24.05;;
49340;SDS011;35209;51.050;13.678;2022-12-18T14:01:34;55.72;;;24.23;;
49340;SDS011;35209;51.050;13.678;2022-12-18T14:06:36;47.20;;;23.92;;
49340;SDS011;35209;51.050;13.678;2022-12-18T14:11:38;47.05;;;22.17;;
49340;SDS011;35209;51.050;13.678;2022-12-18T14:16:40;49.28;;;23.02;;
49340;SDS011;35209;51.050;13.678;2022-12-18T14:21:49;46.78;;;22.75;;
49340;SDS011;35209;51.050;13.678;2022-12-18T14:26:51;46.05;;;22.73;;
49340;SDS011;35209;51.050;13.678;2022-12-18T14:37:23;46.97;;;21.95;;
49340;SDS011;35209;51.050;13.678;2022-12-18T14:42:26;34.50;;;20.63;;
49340;SDS011;35209;51.050;13.678;2022-12-18T14:47:29;46.08;;;22.73;;
49340;SDS011;35209;51.050;13.678;2022-12-18T14:52:31;36.85;;;21.02;;
49340;SDS011;35209;51.050;13.678;2022-12-18T14:57:35;35.20;;;20.52;;
49340;SDS011;35209;51.050;13.678;2022-12-18T15:02:39;31.20;;;20.77;;
49340;SDS011;35209;51.050;13.678;2022-12-18T15:07:42;38.47;;;20.88;;
49340;SDS011;35209;51.050;13.678;2022-12-18T15:12:49;41.65;;;21.42;;
49340;SDS011;35209;51.050;13.678;2022-12-18T15:28:25;33.60;;;20.60;;
49340;SDS011;35209;51.050;13.678;2022-12-18T15:33:31;35.42;;;21.33;;
49340;SDS011;35209;51.050;13.678;2022-12-18T15:38:35;39.15;;;20.08;;
49340;SDS011;35209;51.050;13.678;2022-12-18T15:43:37;43.67;;;22.73;;
49340;SDS011;35209;51.050;13.678;2022-12-18T15:48:40;44.75;;;21.42;;
49340;SDS011;35209;51.050;13.678;2022-12-18T15:53:44;45.72;;;22.08;;
49340;SDS011;35209;51.050;13.678;2022-12-18T15:58:46;38.85;;;20.52;;
49340;SDS011;35209;51.050;13.678;2022-12-18T16:03:48;44.22;;;22.05;;
49340;SDS011;35209;51.050;13.678;2022-12-18T16:08:50;93.03;;;38.42;;
49340;SDS011;35209;51.050;13.678;2022-12-18T16:13:52;52.10;;;23.98;;
49340;SDS011;35209;51.050;13.678;2022-12-18T16:18:54;48.85;;;22.65;;
49340;SDS011;35209;51.050;13.678;2022-12-18T16:23:55;50.00;;;23.80;;
49340;SDS011;35209;51.050;13.678;2022-12-18T16:28:57;48.22;;;23.00;;
49340;SDS011;35209;51.050;13.678;2022-12-18T16:34:09;46.55;;;22.52;;
49340;SDS011;35209;51.050;13.678;2022-12-18T16:39:29;43.90;;;21.63;;
49340;SDS011;35209;51.050;13.678;2022-12-18T16:44:32;46.63;;;23.05;;
49340;SDS011;35209;51.050;13.678;2022-12-18T16:49:37;47.78;;;22.92;;
49340;SDS011;35209;51.050;13.678;2022-12-18T16:54:39;52.85;;;22.58;;
49340;SDS011;35209;51.050;13.678;2022-12-18T16:59:41;57.95;;;21.90;;
49340;SDS011;35209;51.050;13.678;2022-12-18T17:04:44;48.75;;;23.95;;
49340;SDS011;35209;51.050;13.678;2022-12-18T17:09:47;38.40;;;22.17;;
49340;SDS011;35209;51.050;13.678;2022-12-18T17:14:51;46.35;;;22.38;;
49340;SDS011;35209;51.050;13.678;2022-12-18T17:19:52;44.25;;;24.13;;
49340;SDS011;35209;51.050;13.678;2022-12-18T17:24:54;49.75;;;23.63;;
49340;SDS011;35209;51.050;13.678;2022-12-18T17:29:59;45.17;;;22.33;;
49340;SDS011;35209;51.050;13.678;2022-12-18T17:35:01;48.13;;;22.88;;
49340;SDS011;35209;51.050;13.678;2022-12-18T17:40:08;46.40;;;22.85;;
49340;SDS011;35209;51.050;13.678;2022-12-18T17:45:10;42.05;;;22.75;;
49340;SDS011;35209;51.050;13.678;2022-12-18T17:50:12;39.22;;;22.40;;
49340;SDS011;35209;51.050;13.678;2022-12-18T17:55:14;40.72;;;21.73;;
49340;SDS011;35209;51.050;13.678;2022-12-18T18:00:16;44.92;;;21.42;;
49340;SDS011;35209;51.050;13.678;2022-12-18T18:05:19;42.13;;;22.60;;
49340;SDS011;35209;51.050;13.678;2022-12-18T18:10:21;48.00;;;24.20;;
49340;SDS011;35209;51.050;13.678;2022-12-18T18:15:24;44.92;;;23.08;;
49340;SDS011;35209;51.050;13.678;2022-12-18T18:20:25;38.88;;;21.70;;
49340;SDS011;35209;51.050;13.678;2022-12-18T18:25:34;49.38;;;23.40;;
49340;SDS011;35209;51.050;13.678;2022-12-18T18:30:38;52.95;;;23.27;;
49340;SDS011;35209;51.050;13.678;2022-12-18T18:35:41;37.00;;;21.13;;
49340;SDS011;35209;51.050;13.678;2022-12-18T18:40:59;37.65;;;21.15;;
49340;SDS011;35209;51.050;13.678;2022-12-18T18:46:04;42.80;;;20.55;;
49340;SDS011;35209;51.050;13.678;2022-12-18T18:51:07;30.70;;;19.13;;
49340;SDS011;35209;51.050;13.678;2022-12-18T18:56:13;36.73;;;18.57;;
49340;SDS011;35209;51.050;13.678;2022-12-18T19:01:37;30.85;;;18.48;;
49340;SDS011;35209;51.050;13.678;2022-12-18T19:06:39;31.88;;;17.38;;
49340;SDS011;35209;51.050;13.678;2022-12-18T19:11:41;41.05;;;19.23;;
49340;SDS011;35209;51.050;13.678;2022-12-18T19:17:03;30.13;;;18.48;;
49340;SDS011;35209;51.050;13.678;2022-12-18T19:22:06;35.35;;;18.58;;
49340;SDS011;35209;51.050;13.678;2022-12-18T19:27:08;31.52;;;18.63;;
49340;SDS011;35209;51.050;13.678;2022-12-18T19:32:10;27.38;;;16.98;;
49340;SDS011;35209;51.050;13.678;2022-12-18T19:37:12;36.13;;;19.23;;
49340;SDS011;35209;51.050;13.678;2022-12-18T19:42:14;41.45;;;19.95;;
49340;SDS011;35209;51.050;13.678;2022-12-18T19:47:23;32.58;;;19.15;;
49340;SDS011;35209;51.050;13.678;2022-12-18T19:52:25;35.67;;;18.30;;
49340;SDS011;35209;51.050;13.678;2022-12-18T19:57:27;37.08;;;18.92;;
49340;SDS011;35209;51.050;13.678;2022-12-18T20:02:29;42.50;;;19.10;;
49340;SDS011;35209;51.050;13.678;2022-12-18T20:07:31;32.22;;;20.05;;
49340;SDS011;35209;51.050;13.678;2022-12-18T20:12:34;41.90;;;18.90;;
49340;SDS011;35209;51.050;13.678;2022-12-18T20:17:38;37.88;;;19.10;;
49340;SDS011;35209;51.050;13.678;2022-12-18T20:22:40;33.28;;;17.75;;
49340;SDS011;35209;51.050;13.678;2022-12-18T20:27:45;40.22;;;18.95;;
49340;SDS011;35209;51.050;13.678;2022-12-18T20:32:47;42.08;;;20.23;;
49340;SDS011;35209;51.050;13.678;2022-12-18T20:37:49;35.50;;;18.23;;
49340;SDS011;35209;51.050;13.678;2022-12-18T20:42:52;34.53;;;19.55;;
49340;SDS011;35209;51.050;13.678;2022-12-18T20:47:56;33.00;;;18.67;;
49340;SDS011;35209;51.050;13.678;2022-12-18T20:52:59;34.00;;;20.38;;
49340;SDS011;35209;51.050;13.678;2022-12-18T20:58:01;34.38;;;19.48;;
49340;SDS011;35209;51.050;13.678;2022-12-18T21:03:03;31.63;;;18.23;;
49340;SDS011;35209;51.050;13.678;2022-12-18T21:08:05;41.00;;;20.00;;
49340;SDS011;35209;51.050;13.678;2022-12-18T21:13:07;38.75;;;19.23;;
49340;SDS011;35209;51.050;13.678;2022-12-18T21:18:10;39.30;;;19.35;;
49340;SDS011;35209;51.050;13.678;2022-12-18T21:23:12;27.00;;;17.90;;
49340;SDS011;35209;51.050;13.678;2022-12-18T21:28:17;36.55;;;19.35;;
49340;SDS011;35209;51.050;13.678;2022-12-18T21:33:18;31.85;;;17.42;;
49340;SDS011;35209;51.050;13.678;2022-12-18T21:38:20;29.60;;;17.92;;
49340;SDS011;35209;51.050;13.678;2022-12-18T21:43:22;31.30;;;18.90;;
49340;SDS011;35209;51.050;13.678;2022-12-18T21:48:42;31.67;;;19.95;;
49340;SDS011;35209;51.050;13.678;2022-12-18T21:53:44;33.90;;;19.00;;
49340;SDS011;35209;51.050;13.678;2022-12-18T21:58:49;41.95;;;20.42;;
49340;SDS011;35209;51.050;13.678;2022-12-18T22:03:57;39.33;;;20.00;;
49340;SDS011;35209;51.050;13.678;2022-12-18T22:09:00;39.35;;;21.27;;
49340;SDS011;35209;51.050;13.678;2022-12-18T22:14:01;46.92;;;22.80;;
49340;SDS011;35209;51.050;13.678;2022-12-18T22:19:03;41.88;;;20.45;;
49340;SDS011;35209;51.050;13.678;2022-12-18T22:24:18;48.88;;;22.75;;
49340;SDS011;35209;51.050;13.678;2022-12-18T22:29:24;43.47;;;21.77;;
49340;SDS011;35209;51.050;13.678;2022-12-18T22:34:46;50.17;;;24.02;;
49340;SDS011;35209;51.050;13.678;2022-12-18T22:39:47;50.70;;;23.40;;
49340;SDS011;35209;51.050;13.678;2022-12-18T22:44:49;44.38;;;23.25;;
49340;SDS011;35209;51.050;13.678;2022-12-18T22:49:51;48.50;;;25.65;;
49340;SDS011;35209;51.050;13.678;2022-12-18T22:54:52;40.00;;;22.30;;
49340;SDS011;35209;51.050;13.678;2022-12-18T22:59:54;60.55;;;24.92;;
49340;SDS011;35209;51.050;13.678;2022-12-18T23:04:56;45.55;;;24.63;;
49340;SDS011;35209;51.050;13.678;2022-12-18T23:09:58;40.97;;;23.23;;
49340;SDS011;35209;51.050;13.678;2022-12-18T23:15:01;46.78;;;24.48;;
49340;SDS011;35209;51.050;13.678;2022-12-18T23:20:04;47.15;;;25.48;;
49340;SDS011;35209;51.050;13.678;2022-12-18T23:25:09;54.20;;;24.98;;
49340;SDS011;35209;51.050;13.678;2022-12-18T23:30:11;46.90;;;24.80;;
49340;SDS011;35209;51.050;13.678;2022-12-18T23:35:13;55.67;;;25.15;;
49340;SDS011;35209;51.050;13.678;2022-12-18T23:40:16;60.83;;;27.80;;
49340;SDS011;35209;51.050;13.678;2022-12-18T23:45:18;50.22;;;26.40;;
49340;SDS011;35209;51.050;13.678;2022-12-18T23:50:20;58.42;;;26.90;;
49340;SDS011;35209;51.050;13.678;2022-12-18T23:55:30;51.15;;;25.20;;
